METAR EVRA 181020Z 11006KT 070V150 9999 BKN012 OVC028 09/08 Q1019 R18/190095 NOSIG =

Latvia vACC - Sector File Downloads

Latest EVRR sector file for EuroScope.

Alternatively to be downloaded from within the Euroscope.

Download Sector file here

 
 

Baltic sector file AIRAC 1312 for VRC Radar client

Download Sector file here

 

 

 

Controllers Online

PositionControllerOnline
No controllers currently online

Booked ATC Today

No ATC booked yet.
Be the first for today!
* Times are UTC

The time is now

UTC: 

Local: 

Latvia vACC on twitter